Time;durP1;ratioP1;P1;durP2;ratioP2;P2;SDS_P1;SDS_P2;PMS_P1;PMS_P2;Temp;Humidity;BMP_temperature;BMP_pressure;BME280_temperature;BME280_humidity;BME280_pressure;Samples;Min_cycle;Max_cycle;Signal;HPM_P1;HPM_P2
2023/04/01 00:01:05;;;;;;;13.88;6.55;;;;;;;9.32;100.00;99084.84;6188857;23;20024;-77
2023/04/01 00:03:33;;;;;;;18.00;7.03;;;;;;;9.31;100.00;99080.72;6188260;23;20549;-77
2023/04/01 00:06:01;;;;;;;8.90;6.65;;;;;;;9.31;100.00;99085.31;6190630;23;20417;-78
2023/04/01 00:08:28;;;;;;;16.35;7.07;;;;;;;9.30;100.00;99081.19;6187724;23;20017;-77
2023/04/01 00:10:56;;;;;;;10.35;7.13;;;;;;;9.31;100.00;99094.00;6188675;23;20041;-77
2023/04/01 00:13:25;;;;;;;14.82;6.93;;;;;;;9.31;100.00;99086.03;6186188;23;20132;-77
2023/04/01 00:15:53;;;;;;;12.85;7.45;;;;;;;9.31;100.00;99093.28;6188900;23;20049;-77
2023/04/01 00:18:20;;;;;;;12.32;8.13;;;;;;;9.30;100.00;99092.53;6188267;23;20017;-78
2023/04/01 00:20:48;;;;;;;12.50;7.90;;;;;;;9.31;100.00;99101.25;6188799;23;20474;-77
2023/04/01 00:23:15;;;;;;;14.77;7.80;;;;;;;9.30;100.00;99097.84;6187375;23;20129;-78
2023/04/01 00:25:42;;;;;;;16.23;7.82;;;;;;;9.30;100.00;99097.13;6189114;23;20017;-78
2023/04/01 00:28:09;;;;;;;19.52;7.40;;;;;;;9.29;100.00;99096.41;6188174;23;20455;-77
2023/04/01 00:30:37;;;;;;;16.05;7.60;;;;;;;9.30;100.00;99102.44;6187006;23;20021;-78
2023/04/01 00:33:03;;;;;;;14.73;6.85;;;;;;;9.32;100.00;99100.03;6213804;23;20029;-77
2023/04/01 00:35:32;;;;;;;16.70;7.55;;;;;;;9.32;100.00;99100.03;6189453;23;20014;-77
2023/04/01 00:37:58;;;;;;;18.15;7.72;;;;;;;9.30;100.00;99095.19;6188673;23;20021;-77
2023/04/01 00:40:32;;;;;;;18.45;7.72;;;;;;;9.30;100.00;99095.19;6188769;23;20041;-77
2023/04/01 00:43:00;;;;;;;19.83;8.25;;;;;;;9.29;100.00;99101.72;6188262;23;20355;-76
2023/04/01 00:45:38;;;;;;;17.63;8.40;;;;;;;9.32;100.00;99102.69;6189706;23;20014;-79
2023/04/01 00:48:16;;;;;;;14.98;8.18;;;;;;;9.33;100.00;99098.84;6190889;23;20013;-77
2023/04/01 00:50:49;;;;;;;24.08;9.10;;;;;;;9.33;100.00;99099.56;6189998;23;20017;-77
2023/04/01 00:53:17;;;;;;;29.88;10.02;;;;;;;9.31;100.00;99101.25;6187109;23;20026;-77
2023/04/01 00:55:55;;;;;;;22.20;10.10;;;;;;;9.29;100.00;99101.72;6188494;23;20514;-78
2023/04/01 00:58:24;;;;;;;18.75;8.52;;;;;;;9.26;100.00;99099.25;6189702;23;20479;-78
2023/04/01 01:00:52;;;;;;;17.73;8.45;;;;;;;9.24;100.00;99113.00;6188169;23;20029;-78
2023/04/01 01:03:18;;;;;;;12.85;7.85;;;;;;;9.23;100.00;99108.16;6187710;23;20045;-77
2023/04/01 01:06:12;;;;;;;18.10;8.13;;;;;;;9.20;100.00;99109.09;6187842;23;20455;-77
2023/04/01 01:08:48;;;;;;;14.48;8.20;;;;;;;9.19;100.00;99115.63;6190006;23;20017;-77
2023/04/01 01:11:23;;;;;;;15.68;8.43;;;;;;;9.18;100.00;99111.53;6190032;23;20359;-77
2023/04/01 01:14:02;;;;;;;18.25;8.23;;;;;;;9.16;100.00;99114.63;6188263;23;20029;-78
2023/04/01 01:16:32;;;;;;;15.20;7.88;;;;;;;9.16;100.00;99116.56;6189300;23;20419;-77
2023/04/01 01:19:10;;;;;;;13.50;8.73;;;;;;;9.15;100.00;99120.41;6189652;23;20021;-78
2023/04/01 01:21:49;;;;;;;16.83;8.93;;;;;;;9.14;100.00;99116.31;6189222;23;20025;-77
2023/04/01 01:24:49;;;;;;;15.88;8.68;;;;;;;9.13;100.00;99112.91;6187720;23;20056;-78
2023/04/01 01:27:18;;;;;;;21.88;8.90;;;;;;;9.11;100.00;99125.94;6190275;23;20024;-78
2023/04/01 01:29:51;;;;;;;19.95;9.38;;;;;;;9.10;100.00;99121.09;6187985;23;20025;-77
2023/04/01 01:32:39;;;;;;;18.08;8.30;;;;;;;9.09;100.00;99114.31;6188941;23;20025;-79
2023/04/01 01:35:27;;;;;;;16.65;8.45;;;;;;;9.08;100.00;99116.25;6189319;23;20022;-76
2023/04/01 01:37:59;;;;;;;14.88;7.82;;;;;;;9.07;100.00;99125.41;6213363;23;20049;-77
2023/04/01 01:40:28;;;;;;;12.00;7.97;;;;;;;9.08;100.00;99128.78;6189026;23;20014;-78
2023/04/01 01:43:00;;;;;;;8.77;6.50;;;;;;;9.07;100.00;99127.31;6192215;23;20017;-78
2023/04/01 01:45:30;;;;;;;5.97;5.35;;;;;;;9.03;100.00;99130.19;6189507;23;20569;-80
2023/04/01 01:47:59;;;;;;;9.23;4.78;;;;;;;8.98;100.00;99122.88;6187669;23;20049;-79
2023/04/01 01:50:27;;;;;;;9.00;4.97;;;;;;;8.96;100.00;99131.31;6188651;23;20025;-80
2023/04/01 01:53:06;;;;;;;5.28;4.78;;;;;;;8.96;100.00;99136.63;6189694;23;20122;-79
2023/04/01 01:55:36;;;;;;;5.95;4.15;;;;;;;8.93;100.00;99134.16;6187552;23;20130;-78
2023/04/01 01:58:07;;;;;;;7.38;3.92;;;;;;;8.89;100.00;99131.72;6188040;23;20067;-79
2023/04/01 02:00:35;;;;;;;7.03;4.38;;;;;;;8.89;100.00;99133.66;6188028;23;20022;-79
2023/04/01 02:03:03;;;;;;;5.50;4.00;;;;;;;8.88;100.00;99138.22;6187916;23;20048;-79
2023/04/01 02:05:31;;;;;;;5.68;4.07;;;;;;;8.87;100.00;99136.75;6186559;23;20526;-79
2023/04/01 02:08:15;;;;;;;4.13;3.42;;;;;;;8.86;100.00;99134.56;6187558;23;20018;-77
2023/04/01 02:10:47;;;;;;;4.60;3.80;;;;;;;8.83;100.00;99140.81;6189834;23;20013;-78
2023/04/01 02:13:23;;;;;;;3.60;3.30;;;;;;;8.83;100.00;99143.47;6190237;23;20096;-78
2023/04/01 02:15:52;;;;;;;5.80;3.55;;;;;;;8.82;100.00;99142.72;6213535;23;20021;-78
2023/04/01 02:18:20;;;;;;;3.55;3.13;;;;;;;8.79;100.00;99141.03;6188822;23;20447;-78
2023/04/01 02:20:49;;;;;;;3.42;3.13;;;;;;;8.78;100.00;99147.53;6187978;23;20103;-78
2023/04/01 02:23:15;;;;;;;5.15;3.40;;;;;;;8.78;100.00;99142.22;6187325;23;20028;-78
2023/04/01 02:25:44;;;;;;;3.88;2.95;;;;;;;8.77;100.00;99148.72;6212887;23;20028;-78
2023/04/01 02:28:14;;;;;;;4.85;3.50;;;;;;;8.75;100.00;99142.44;6190441;23;20022;-78
2023/04/01 02:30:42;;;;;;;3.60;2.85;;;;;;;8.74;100.00;99147.00;6190033;23;20018;-78
2023/04/01 02:33:10;;;;;;;3.13;2.63;;;;;;;8.73;100.00;99150.13;6186198;23;20022;-77
2023/04/01 02:35:37;;;;;;;3.85;3.22;;;;;;;8.71;100.00;99152.50;6189650;23;20147;-76
2023/04/01 02:38:05;;;;;;;5.03;3.35;;;;;;;8.69;100.00;99152.97;6190428;23;20041;-76
2023/04/01 02:40:48;;;;;;;4.90;3.30;;;;;;;8.68;100.00;99149.59;6187302;23;20017;-77
2023/04/01 02:43:16;;;;;;;5.07;3.85;;;;;;;8.69;100.00;99153.69;6189724;23;20511;-76
2023/04/01 02:45:43;;;;;;;4.07;3.38;;;;;;;8.67;100.00;99153.44;6189425;23;20428;-76
2023/04/01 02:48:09;;;;;;;4.00;3.60;;;;;;;8.64;100.00;99154.34;6188210;23;20036;-77
2023/04/01 02:50:36;;;;;;;5.70;3.58;;;;;;;8.64;100.00;99156.28;6189593;23;20021;-78
2023/04/01 02:53:03;;;;;;;7.05;3.60;;;;;;;8.63;100.00;99158.19;6187372;23;20109;-77
2023/04/01 02:55:30;;;;;;;4.45;4.03;;;;;;;8.63;100.00;99162.78;6186508;23;20415;-78
2023/04/01 02:57:58;;;;;;;3.88;3.50;;;;;;;8.62;100.00;99156.75;6187482;23;20105;-77
2023/04/01 03:00:25;;;;;;;5.47;3.70;;;;;;;8.61;100.00;99159.84;6189022;23;20025;-78
2023/04/01 03:02:52;;;;;;;4.53;3.40;;;;;;;8.61;100.00;99157.19;6162518;23;20073;-79
2023/04/01 03:05:20;;;;;;;5.70;3.55;;;;;;;8.60;100.00;99161.03;6187031;23;20104;-77
2023/04/01 03:07:46;;;;;;;4.95;3.20;;;;;;;8.59;100.00;99164.88;6187520;23;20497;-77
2023/04/01 03:10:13;;;;;;;4.72;3.30;;;;;;;8.58;100.00;99161.50;6186900;23;20100;-77
2023/04/01 03:12:40;;;;;;;3.35;2.75;;;;;;;8.59;100.00;99170.19;6187897;23;20029;-78
2023/04/01 03:15:08;;;;;;;5.95;3.08;;;;;;;8.57;100.00;99167.28;6164223;23;20057;-77
2023/04/01 03:17:38;;;;;;;2.78;2.50;;;;;;;8.57;100.00;99175.97;6187464;23;20096;-77
2023/04/01 03:20:08;;;;;;;3.38;2.80;;;;;;;8.57;100.00;99169.94;6189429;23;20072;-77
2023/04/01 03:22:35;;;;;;;3.33;2.53;;;;;;;8.58;100.00;99182.72;6187306;23;20100;-77
2023/04/01 03:25:04;;;;;;;4.50;2.40;;;;;;;8.58;100.00;99177.41;6187259;23;20025;-77
2023/04/01 03:27:31;;;;;;;2.67;2.40;;;;;;;8.57;100.00;99178.63;6186568;23;20456;-77
2023/04/01 03:29:58;;;;;;;2.88;2.40;;;;;;;8.56;100.00;99179.81;6190397;23;20084;-77
2023/04/01 03:32:27;;;;;;;3.20;2.60;;;;;;;8.54;100.00;99187.50;6186298;23;20028;-78
2023/04/01 03:34:54;;;;;;;2.92;2.60;;;;;;;8.54;100.00;99198.09;6189289;23;20052;-78
2023/04/01 03:37:23;;;;;;;3.08;2.83;;;;;;;8.57;100.00;99202.50;6186800;23;20522;-79
2023/04/01 03:39:50;;;;;;;3.50;3.20;;;;;;;8.57;100.00;99202.50;6187560;23;20182;-78
2023/04/01 03:42:17;;;;;;;4.10;3.67;;;;;;;8.58;100.00;99197.91;6188011;23;20018;-80
2023/04/01 03:44:44;;;;;;;5.30;3.17;;;;;;;8.58;100.00;99203.22;6187576;23;20475;-78
2023/04/01 03:47:11;;;;;;;3.83;3.40;;;;;;;8.58;100.00;99201.28;6187155;23;20028;-78
2023/04/01 03:49:38;;;;;;;4.55;3.33;;;;;;;8.59;100.00;99210.72;6188859;23;20021;-77
2023/04/01 03:52:09;;;;;;;6.63;3.45;;;;;;;8.61;100.00;99210.97;6187743;23;20049;-79
2023/04/01 03:54:35;;;;;;;4.17;3.83;;;;;;;8.60;100.00;99209.53;6191455;23;20474;-77
2023/04/01 03:57:02;;;;;;;5.82;4.43;;;;;;;8.61;100.00;99212.91;6188906;23;20765;-79
2023/04/01 03:59:29;;;;;;;5.15;4.57;;;;;;;8.64;100.00;99215.38;6187572;23;20418;-78
2023/04/01 04:01:55;;;;;;;7.03;4.78;;;;;;;8.66;100.00;99220.22;6188703;23;20021;-77
2023/04/01 04:04:22;;;;;;;4.82;4.53;;;;;;;8.67;100.00;99224.31;6189061;23;20053;-77
2023/04/01 04:06:48;;;;;;;9.20;4.40;;;;;;;8.67;100.00;99221.66;6189609;23;20009;-77
2023/04/01 04:09:15;;;;;;;6.72;5.18;;;;;;;8.67;100.00;99222.41;6189745;23;20021;-78
2023/04/01 04:11:42;;;;;;;5.03;4.55;;;;;;;8.70;100.00;99226.06;6191789;23;20018;-79
2023/04/01 04:14:08;;;;;;;5.75;5.07;;;;;;;8.72;100.00;99234.28;6189847;23;20056;-77
2023/04/01 04:16:38;;;;;;;5.25;4.75;;;;;;;8.73;100.00;99230.44;6216371;23;20017;-77
2023/04/01 04:19:05;;;;;;;5.90;5.28;;;;;;;8.74;100.00;99245.16;6190545;23;20024;-77
2023/04/01 04:21:32;;;;;;;5.00;4.57;;;;;;;8.73;100.00;99241.06;6189282;23;20073;-78
2023/04/01 04:24:00;;;;;;;6.80;4.70;;;;;;;8.75;100.00;99246.63;6189923;23;20026;-78
2023/04/01 04:26:34;;;;;;;4.45;4.13;;;;;;;8.77;100.00;99248.81;6190118;23;20101;-77
2023/04/01 04:29:02;;;;;;;4.65;4.35;;;;;;;8.76;100.00;99252.66;6190108;23;20018;-78
2023/04/01 04:31:29;;;;;;;4.25;3.85;;;;;;;8.78;100.00;99255.59;6215087;23;20105;-78
2023/04/01 04:34:00;;;;;;;4.68;4.18;;;;;;;8.79;100.00;99259.69;6190530;23;20022;-78
2023/04/01 04:36:29;;;;;;;4.57;4.18;;;;;;;8.79;100.00;99260.44;6190320;23;20052;-78
2023/04/01 04:38:57;;;;;;;4.28;3.88;;;;;;;8.79;100.00;99259.69;6191669;23;20073;-78
2023/04/01 04:41:25;;;;;;;5.43;4.35;;;;;;;8.80;100.00;99264.53;6188585;23;20018;-78
2023/04/01 04:43:54;;;;;;;4.65;4.15;;;;;;;8.81;100.00;99278.53;6214700;23;20005;-78
2023/04/01 04:46:22;;;;;;;4.53;4.13;;;;;;;8.81;100.00;99276.59;6190519;23;20089;-78
2023/04/01 04:48:54;;;;;;;4.82;4.40;;;;;;;8.83;100.00;99276.88;6215220;23;20014;-78
2023/04/01 04:51:21;;;;;;;5.05;4.63;;;;;;;8.86;100.00;99283.19;6189405;23;20041;-78
2023/04/01 04:53:49;;;;;;;6.60;4.72;;;;;;;8.87;100.00;99282.72;6190661;23;20053;-78
2023/04/01 04:56:21;;;;;;;5.23;4.73;;;;;;;8.89;100.00;99298.19;6189580;23;20160;-78
2023/04/01 04:58:56;;;;;;;4.28;3.88;;;;;;;8.89;100.00;99301.56;6191596;23;20010;-78
2023/04/01 05:01:27;;;;;;;4.05;3.63;;;;;;;8.90;100.00;99305.69;6214444;23;20491;-78
2023/04/01 05:03:54;;;;;;;3.50;3.25;;;;;;;8.91;100.00;99303.75;6192164;23;20021;-78
2023/04/01 05:06:21;;;;;;;3.47;3.20;;;;;;;8.91;100.00;99312.44;6190924;23;20013;-78
2023/04/01 05:08:49;;;;;;;4.18;3.50;;;;;;;8.92;100.00;99311.25;6191100;23;20017;-78
2023/04/01 05:11:18;;;;;;;3.22;3.03;;;;;;;8.94;100.00;99329.38;6191622;23;20428;-78
2023/04/01 05:13:48;;;;;;;3.60;3.40;;;;;;;8.93;100.00;99326.00;6188988;23;20048;-78
2023/04/01 05:16:18;;;;;;;3.88;3.58;;;;;;;8.95;100.00;99333.50;6189149;23;20058;-79
2023/04/01 05:18:45;;;;;;;4.45;3.97;;;;;;;8.95;100.00;99331.56;6191332;23;20013;-78
2023/04/01 05:21:14;;;;;;;4.35;4.05;;;;;;;8.95;100.00;99338.78;6188778;23;20422;-79
2023/04/01 05:23:41;;;;;;;4.50;4.10;;;;;;;8.94;100.00;99340.72;6191047;23;20037;-79
2023/04/01 05:26:14;;;;;;;4.45;4.05;;;;;;;8.95;100.00;99347.50;6190055;23;20021;-79
2023/04/01 05:28:40;;;;;;;4.93;4.45;;;;;;;8.97;100.00;99349.69;6190650;23;20013;-78
2023/04/01 05:31:08;;;;;;;4.13;3.78;;;;;;;8.96;100.00;99350.88;6189620;23;20018;-78
2023/04/01 05:33:43;;;;;;;4.20;3.90;;;;;;;8.95;100.00;99352.81;6189797;23;20025;-79
2023/04/01 05:36:15;;;;;;;4.47;4.07;;;;;;;8.97;100.00;99363.69;6188018;23;20017;-79
2023/04/01 05:38:45;;;;;;;7.20;4.80;;;;;;;8.97;100.00;99370.91;6192097;23;20877;-79
2023/04/01 05:41:13;;;;;;;4.03;3.70;;;;;;;8.97;100.00;99371.66;6188279;23;20056;-79
2023/04/01 05:43:43;;;;;;;4.10;3.80;;;;;;;8.98;100.00;99372.38;6190092;23;20418;-79
2023/04/01 05:46:31;;;;;;;3.58;3.35;;;;;;;8.97;100.00;99376.97;6158934;23;20033;-78
2023/04/01 05:49:18;;;;;;;3.63;3.33;;;;;;;8.97;100.00;99379.63;6189454;23;20033;-79
2023/04/01 05:51:44;;;;;;;3.38;3.08;;;;;;;8.98;100.00;99385.66;6189140;23;20017;-77
2023/04/01 05:54:11;;;;;;;3.10;2.90;;;;;;;9.00;100.00;99386.66;6188837;23;20010;-76
2023/04/01 05:56:38;;;;;;;2.80;2.60;;;;;;;9.02;100.00;99391.50;6191489;23;20396;-76
2023/04/01 05:59:05;;;;;;;2.60;2.50;;;;;;;9.03;100.00;99385.00;6193131;23;20413;-78
2023/04/01 06:01:31;;;;;;;2.80;2.60;;;;;;;9.03;100.00;99395.63;6189528;23;20084;-77
2023/04/01 06:03:58;;;;;;;3.13;2.88;;;;;;;9.05;100.00;99397.81;6191866;23;20028;-76
2023/04/01 06:06:29;;;;;;;2.85;2.60;;;;;;;9.04;100.00;99407.72;6190221;23;20025;-77
2023/04/01 06:09:13;;;;;;;2.38;2.17;;;;;;;9.04;100.00;99405.06;6189699;23;20017;-78
2023/04/01 06:12:17;;;;;;;2.72;2.55;;;;;;;9.05;100.00;99409.16;6189946;23;20056;-78
2023/04/01 06:15:10;;;;;;;2.95;2.75;;;;;;;9.06;100.00;99415.22;6191387;23;20100;-79
2023/04/01 06:17:40;;;;;;;2.90;2.70;;;;;;;9.05;100.00;99417.13;6188983;23;20025;-79
2023/04/01 06:20:44;;;;;;;2.95;2.75;;;;;;;9.08;100.00;99424.19;6189227;23;20018;-78
2023/04/01 06:23:17;;;;;;;2.63;2.42;;;;;;;9.08;100.00;99424.19;6187872;23;20477;-78
2023/04/01 06:26:00;;;;;;;3.00;2.80;;;;;;;9.08;100.00;99426.84;6212972;23;20025;-79
2023/04/01 06:28:45;;;;;;;2.90;2.70;;;;;;;9.09;100.00;99438.19;6186997;23;20018;-79
2023/04/01 06:31:28;;;;;;;3.55;2.90;;;;;;;9.08;100.00;99442.75;6188209;23;20017;-80
2023/04/01 06:34:15;;;;;;;2.65;2.45;;;;;;;9.12;100.00;99453.19;6188388;23;20028;-77
2023/04/01 06:37:19;;;;;;;2.83;2.63;;;;;;;9.11;100.00;99441.84;6214135;23;20427;-80
2023/04/01 06:40:03;;;;;;;2.28;2.17;;;;;;;9.12;100.00;99453.19;6189671;23;20025;-76
2023/04/01 06:42:40;;;;;;;2.78;2.58;;;;;;;9.13;100.00;99457.31;6188469;23;20028;-77
2023/04/01 06:45:37;;;;;;;2.58;2.38;;;;;;;9.16;100.00;99464.38;6187567;23;20025;-77
2023/04/01 06:48:41;;;;;;;2.40;2.30;;;;;;;9.18;100.00;99467.28;6189696;23;20475;-77
2023/04/01 06:51:57;;;;;;;2.50;2.40;;;;;;;9.18;100.00;99470.69;6157839;23;20105;-78
2023/04/01 06:55:01;;;;;;;2.28;2.17;;;;;;;9.19;100.00;99487.34;6189023;23;20057;-77
2023/04/01 06:58:00;;;;;;;2.08;1.98;;;;;;;9.21;100.00;99480.34;6191755;23;20025;-78
2023/04/01 07:00:32;;;;;;;2.60;2.40;;;;;;;9.22;100.00;99492.44;6187421;23;20032;-78
2023/04/01 07:03:10;;;;;;;2.47;2.28;;;;;;;9.24;100.00;99494.63;6187906;23;20096;-77
2023/04/01 07:05:37;;;;;;;1.90;1.80;;;;;;;9.25;100.00;99496.09;6188159;23;20108;-77
2023/04/01 07:08:13;;;;;;;2.20;2.10;;;;;;;9.26;100.00;99498.31;6186797;23;20013;-77
2023/04/01 07:10:45;;;;;;;2.17;2.08;;;;;;;9.28;100.00;99503.16;6189574;23;20041;-77
2023/04/01 07:13:52;;;;;;;2.00;1.90;;;;;;;9.31;100.00;99502.22;6189599;23;20025;-77
2023/04/01 07:16:38;;;;;;;2.22;2.13;;;;;;;9.33;100.00;99513.88;6189104;23;20018;-77
2023/04/01 07:19:12;;;;;;;2.10;1.90;;;;;;;9.35;100.00;99510.75;6187896;23;20055;-77
2023/04/01 07:21:56;;;;;;;2.90;2.70;;;;;;;9.39;100.00;99521.19;6187818;23;20033;-77
2023/04/01 07:24:43;;;;;;;2.75;2.58;;;;;;;9.40;100.00;99526.03;6186487;23;20490;-77
2023/04/01 07:27:13;;;;;;;3.42;3.13;;;;;;;9.42;100.00;99528.25;6187143;23;20064;-77
2023/04/01 07:29:41;;;;;;;3.13;2.92;;;;;;;9.40;100.00;99534.00;6187646;23;20857;-77
2023/04/01 07:32:26;;;;;;;3.45;3.25;;;;;;;9.43;100.00;99533.09;6187208;23;20029;-79
2023/04/01 07:35:15;;;;;;;3.00;2.80;;;;;;;9.44;100.00;99539.88;6187446;23;20026;-79
2023/04/01 07:37:49;;;;;;;4.10;3.70;;;;;;;9.48;100.00;99547.66;6211935;23;20017;-78
2023/04/01 07:40:45;;;;;;;3.17;2.90;;;;;;;9.50;100.00;99551.31;6186702;23;20022;-79
2023/04/01 07:43:12;;;;;;;3.10;2.90;;;;;;;9.52;100.00;99553.50;6187359;23;20045;-78
2023/04/01 07:46:33;;;;;;;3.22;3.03;;;;;;;9.55;100.00;99560.56;6191395;23;20035;-79
2023/04/01 07:49:27;;;;;;;2.65;2.55;;;;;;;9.55;100.00;99563.97;6109782;23;20023;-79
2023/04/01 07:52:08;;;;;;;2.85;2.65;;;;;;;9.55;100.00;99566.63;6188506;23;20025;-79
2023/04/01 07:54:53;;;;;;;2.75;2.55;;;;;;;9.55;100.00;99571.19;6187632;23;20021;-79
2023/04/01 07:57:27;;;;;;;3.47;3.20;;;;;;;9.56;100.00;99578.72;6186991;23;20013;-79
2023/04/01 08:00:18;;;;;;;3.47;3.13;;;;;;;9.58;100.00;99581.63;6187111;23;20026;-78
2023/04/01 08:03:33;;;;;;;3.00;2.80;;;;;;;9.57;100.00;99587.41;6167087;23;20013;-78
2023/04/01 08:06:12;;;;;;;;;;;;;;;9.55;100.00;99592.44;6187137;23;20022;-79
2023/04/01 08:09:07;;;;;;;3.50;3.17;;;;;;;9.57;100.00;99598.78;6187816;23;19952;-78
2023/04/01 08:12:23;;;;;;;3.25;3.05;;;;;;;9.61;100.00;99599.28;6097213;23;20452;-79
2023/04/01 08:15:14;;;;;;;3.67;3.38;;;;;;;9.63;100.00;99609.47;6097474;23;20026;-80
2023/04/01 08:18:34;;;;;;;5.38;3.95;;;;;;;9.68;100.00;99606.16;6094310;23;20023;-78
2023/04/01 08:21:07;;;;;;;4.05;3.75;;;;;;;9.68;100.00;99614.88;6072393;23;20023;-77
2023/04/01 08:23:40;;;;;;;3.60;3.30;;;;;;;9.69;100.00;99619.00;6073030;23;20030;-79
2023/04/01 08:26:13;;;;;;;3.65;3.35;;;;;;;9.68;100.00;99627.41;6096953;23;20019;-77
2023/04/01 08:28:54;;;;;;;6.15;4.32;;;;;;;9.69;100.00;99618.25;6073218;23;20429;-77
2023/04/01 08:31:33;;;;;;;4.05;3.65;;;;;;;9.70;100.00;99641.72;6072626;23;20111;-77
2023/04/01 08:34:02;;;;;;;4.40;4.00;;;;;;;9.69;100.00;99636.84;6098479;23;20106;-77
2023/04/01 08:36:36;;;;;;;4.03;3.67;;;;;;;9.69;100.00;99644.84;6071860;23;20018;-77
2023/04/01 08:39:29;;;;;;;9.32;5.50;;;;;;;9.73;100.00;99650.69;6072597;23;20047;-76
2023/04/01 08:42:30;;;;;;;6.18;4.20;;;;;;;9.74;100.00;99656.75;6075002;23;20504;-76
2023/04/01 08:45:33;;;;;;;4.85;4.35;;;;;;;9.74;100.00;99657.47;6185591;23;20101;-81
2023/04/01 08:48:16;;;;;;;9.68;5.78;;;;;;;9.78;100.00;99659.94;6189853;23;20022;-77
2023/04/01 08:51:01;;;;;;;11.27;6.28;;;;;;;9.81;100.00;99670.41;6186474;23;20118;-76
2023/04/01 08:54:10;;;;;;;11.57;6.88;;;;;;;9.81;100.00;99665.09;6188227;23;20021;-76
2023/04/01 08:56:47;;;;;;;11.00;5.63;;;;;;;9.82;100.00;99674.53;6190221;23;20069;-76
2023/04/01 08:59:37;;;;;;;12.88;7.43;;;;;;;9.87;100.00;99673.16;6187595;23;20440;-77
2023/04/01 09:02:53;;;;;;;7.65;5.28;;;;;;;9.91;100.00;99681.69;6165481;23;20109;-76
2023/04/01 09:05:29;;;;;;;4.50;4.10;;;;;;;9.98;100.00;99679.38;6187363;23;20013;-76
2023/04/01 09:08:14;;;;;;;4.32;3.72;;;;;;;10.00;100.00;99681.56;6187920;23;20021;-80
2023/04/01 09:11:22;;;;;;;4.20;3.90;;;;;;;10.04;100.00;99684.75;6188236;23;20021;-76
2023/04/01 09:14:17;;;;;;;3.80;3.50;;;;;;;10.07;100.00;99691.09;6171662;23;20035;-76
2023/04/01 09:17:24;;;;;;;3.65;3.38;;;;;;;10.09;100.00;99688.69;6188074;23;20413;-76
2023/04/01 09:20:27;;;;;;;3.28;3.08;;;;;;;10.12;100.00;99698.41;6187835;23;20523;-76
2023/04/01 09:23:28;;;;;;;3.33;3.03;;;;;;;10.15;100.00;99708.88;6187990;23;20017;-77
2023/04/01 09:26:10;;;;;;;4.72;2.78;;;;;;;10.17;100.00;99711.06;6188318;23;20025;-77
2023/04/01 09:28:55;;;;;;;3.28;3.00;;;;;;;10.19;100.00;99712.09;6163753;23;20110;-77
2023/04/01 09:31:50;;;;;;;3.22;3.03;;;;;;;10.24;100.00;99716.78;6188243;23;20336;-77
2023/04/01 09:35:02;;;;;;;3.72;3.28;;;;;;;10.28;100.00;99725.31;6186218;23;20025;-76
2023/04/01 09:37:46;;;;;;;4.18;3.88;;;;;;;10.37;100.00;99721.81;6188216;23;20530;-77
2023/04/01 09:40:26;;;;;;;3.83;3.53;;;;;;;10.43;100.00;99724.53;6187593;23;20049;-80
2023/04/01 09:43:21;;;;;;;3.97;3.65;;;;;;;10.49;100.00;99733.31;6187849;23;20101;-77
2023/04/01 09:45:57;;;;;;;3.80;3.50;;;;;;;10.54;100.00;99732.69;6188206;23;20471;-77
2023/04/01 09:49:01;;;;;;;4.30;3.90;;;;;;;10.64;100.00;99742.00;6187333;23;20467;-77
2023/04/01 09:51:51;;;;;;;3.88;3.63;;;;;;;10.81;100.00;99742.97;6212982;23;20517;-77
2023/04/01 09:54:36;;;;;;;4.32;4.03;;;;;;;10.87;100.00;99745.69;6187369;23;20028;-76
2023/04/01 09:57:21;;;;;;;5.10;4.70;;;;;;;10.87;100.00;99751.75;6188120;23;20022;-79
2023/04/01 10:00:21;;;;;;;5.28;4.80;;;;;;;10.90;100.00;99750.81;6187592;23;20041;-77
2023/04/01 10:03:08;;;;;;;5.28;4.80;;;;;;;11.03;100.00;99747.84;6187534;23;20021;-78
2023/04/01 10:06:13;;;;;;;5.50;5.10;;;;;;;11.22;100.00;99751.69;6188107;23;20021;-79
2023/04/01 10:09:17;;;;;;;6.22;5.63;;;;;;;11.49;100.00;99753.22;6191482;23;20068;-78
2023/04/01 10:12:12;;;;;;;5.70;5.15;;;;;;;11.67;100.00;99757.50;6188715;23;20060;-78
2023/04/01 10:15:07;;;;;;;6.03;5.45;;;;;;;11.75;100.00;99760.50;6176160;23;20515;-78
2023/04/01 10:17:59;;;;;;;6.85;5.25;;;;;;;11.78;100.00;99765.63;6187561;23;20018;-79
2023/04/01 10:20:39;;;;;;;6.05;5.47;;;;;;;11.83;100.00;99772.22;6187790;23;20403;-77
2023/04/01 10:23:31;;;;;;;7.15;5.25;;;;;;;11.88;100.00;99766.22;6189904;23;20017;-79
2023/04/01 10:26:28;;;;;;;5.47;4.97;;;;;;;11.83;100.00;99774.91;6189760;23;20530;-78
2023/04/01 10:29:31;;;;;;;5.53;5.13;;;;;;;11.84;100.00;99773.69;6187345;23;20025;-80
2023/04/01 10:32:14;;;;;;;5.57;5.17;;;;;;;11.86;100.00;99773.97;6187558;23;20422;-81
2023/04/01 10:35:18;;;;;;;5.28;4.88;;;;;;;11.83;99.99;99778.31;6188305;23;20064;-79
2023/04/01 10:38:03;;;;;;;4.82;4.43;;;;;;;11.82;99.56;99787.50;6187957;23;20041;-79
2023/04/01 10:40:58;;;;;;;5.45;4.93;;;;;;;11.85;98.98;99783.91;6215365;23;20072;-78
2023/04/01 10:44:21;;;;;;;;;;;;;;;11.83;99.73;99790.91;6189677;23;20029;-77
2023/04/01 10:47:10;;;;;;;6.10;4.82;;;;;;;11.76;98.76;99784.00;6189412;23;20325;-76
2023/04/01 10:49:43;;;;;;;4.80;4.40;;;;;;;11.79;98.70;99785.78;6187727;23;20018;-77
2023/04/01 10:52:22;;;;;;;4.28;3.97;;;;;;;11.80;98.31;99791.84;6189414;23;20041;-76
2023/04/01 10:55:45;;;;;;;4.70;4.40;;;;;;;11.84;98.44;99793.09;6127183;23;20027;-77
2023/04/01 10:59:04;;;;;;;5.10;4.60;;;;;;;11.99;98.11;99803.66;6127365;23;20027;-79
2023/04/01 11:02:18;;;;;;;4.78;4.38;;;;;;;12.14;97.11;99800.88;6125895;23;20033;-80
2023/04/01 11:05:31;;;;;;;4.18;3.90;;;;;;;12.31;97.56;99805.16;6127706;23;20026;-78
2023/04/01 11:08:49;;;;;;;3.63;3.33;;;;;;;12.22;96.64;99813.31;6102580;23;20539;-77
2023/04/01 11:11:17;;;;;;;4.43;4.03;;;;;;;12.14;96.30;99809.59;6015889;23;20103;-77
2023/04/01 11:14:02;;;;;;;3.40;3.17;;;;;;;12.15;97.03;99807.69;6016201;23;20027;-76
2023/04/01 11:16:31;;;;;;;2.17;2.08;;;;;;;12.01;96.97;99811.91;6038729;23;20518;-78
2023/04/01 11:19:17;;;;;;;2.08;1.83;;;;;;;11.85;97.55;99818.56;6016112;23;20020;-77
2023/04/01 11:22:17;;;;;;;1.95;1.85;;;;;;;11.85;97.78;99823.91;6016503;23;20066;-77
2023/04/01 11:25:20;;;;;;;7.32;1.77;;;;;;;11.92;98.21;99822.75;6016613;23;20589;-77
2023/04/01 11:28:24;;;;;;;2.20;2.10;;;;;;;11.91;98.10;99832.69;6096892;23;20026;-77
2023/04/01 11:30:58;;;;;;;;;;;;;;;11.93;98.54;99830.28;6074164;23;20023;-77
2023/04/01 11:33:36;;;;;;;2.10;2.00;;;;;;;11.90;98.45;99841.88;6073815;23;20004;-77
2023/04/01 11:36:31;;;;;;;2.03;1.73;;;;;;;11.92;98.28;99844.09;6072821;23;20410;-77
2023/04/01 11:39:20;;;;;;;1.77;1.67;;;;;;;11.96;97.81;99850.69;6072966;23;20019;-77
2023/04/01 11:42:02;;;;;;;2.03;1.92;;;;;;;12.05;97.29;99854.38;6142315;23;20022;-78
2023/04/01 11:45:06;;;;;;;1.40;1.40;;;;;;;12.03;95.15;99854.84;6189360;23;20030;-76
2023/04/01 11:47:52;;;;;;;1.17;1.17;;;;;;;11.98;95.41;99860.88;6188578;23;20051;-78
2023/04/01 11:50:40;;;;;;;1.17;1.17;;;;;;;11.91;95.49;99864.69;6187781;23;20021;-79
2023/04/01 11:53:25;;;;;;;1.20;1.20;;;;;;;11.83;95.42;99862.91;6187906;23;20035;-77
2023/04/01 11:56:11;;;;;;;1.58;1.00;;;;;;;11.75;95.35;99877.81;6187786;23;20419;-78
2023/04/01 11:58:51;;;;;;;1.17;1.17;;;;;;;11.71;95.25;99878.00;6189995;23;20021;-78
2023/04/01 12:01:30;;;;;;;1.75;1.25;;;;;;;11.67;95.57;99883.53;6188958;23;20469;-77
2023/04/01 12:04:18;;;;;;;1.83;1.50;;;;;;;11.63;95.91;99882.25;6189237;23;20014;-77
2023/04/01 12:07:12;;;;;;;1.70;1.60;;;;;;;11.65;96.39;99888.59;6189246;23;20466;-77
2023/04/01 12:09:47;;;;;;;2.03;1.92;;;;;;;11.68;96.87;99893.00;6189069;23;20013;-77
2023/04/01 12:12:46;;;;;;;3.63;2.28;;;;;;;11.77;97.60;99892.16;6188616;23;20370;-77
2023/04/01 12:15:37;;;;;;;2.83;2.63;;;;;;;11.83;97.43;99902.91;6173612;23;20049;-76
2023/04/01 12:18:23;;;;;;;3.35;3.15;;;;;;;11.91;97.91;99901.28;6189226;23;20364;-76
2023/04/01 12:20:59;;;;;;;3.88;3.60;;;;;;;11.95;97.57;99909.81;6188813;23;20049;-76
2023/04/01 12:23:51;;;;;;;4.47;4.18;;;;;;;11.97;97.82;99913.50;6188720;23;20018;-77
2023/04/01 12:26:42;;;;;;;4.28;3.95;;;;;;;11.90;97.40;99908.56;6189414;23;20010;-76
2023/04/01 12:29:34;;;;;;;4.38;4.07;;;;;;;11.85;96.95;99913.81;6189463;23;20024;-76